Time;durP1;ratioP1;P1;durP2;ratioP2;P2;SDS_P1;SDS_P2;PMS_P1;PMS_P2;Temp;Humidity;BMP_temperature;BMP_pressure;BME280_temperature;BME280_humidity;BME280_pressure;Samples;Min_cycle;Max_cycle;Signal;HPM_P1;HPM_P2
2021/08/14 00:02:03;;;;;;;;;;;;;;;15.60;80.05;100416.56;5053374;28;834;-60
2021/08/14 00:04:30;;;;;;;;;;;;;;;15.57;80.05;100420.97;5053355;28;822;-60
2021/08/14 00:06:57;;;;;;;;;;;;;;;15.55;80.24;100417.81;5053297;28;826;-60
2021/08/14 00:09:24;;;;;;;;;;;;;;;15.60;80.32;100417.34;5053228;28;865;-60
2021/08/14 00:11:50;;;;;;;;;;;;;;;15.66;80.22;100415.66;5053375;28;818;-60
2021/08/14 00:14:17;;;;;;;;;;;;;;;15.70;80.20;100401.66;5053074;28;979;-59
2021/08/14 00:16:43;;;;;;;;;;;;;;;15.69;80.01;100398.09;5052822;28;1347;-60
2021/08/14 00:19:10;;;;;;;;;;;;;;;15.68;79.94;100406.88;5052939;28;1914;-60
2021/08/14 00:21:37;;;;;;;;;;;;;;;15.59;80.09;100410.19;5053017;28;818;-60
2021/08/14 00:24:04;;;;;;;;;;;;;;;15.50;80.39;100404.38;5052924;28;865;-60
2021/08/14 00:26:31;;;;;;;;;;;;;;;15.43;80.85;100412.84;5053056;28;907;-60
2021/08/14 00:28:58;;;;;;;;;;;;;;;15.43;80.94;100410.84;5052868;28;826;-60
2021/08/14 00:31:25;;;;;;;;;;;;;;;15.37;81.14;100409.75;5052781;28;893;-60
2021/08/14 00:33:51;;;;;;;;;;;;;;;15.34;81.44;100409.78;5052723;28;877;-60
2021/08/14 00:36:18;;;;;;;;;;;;;;;15.35;81.54;100416.94;5052904;28;902;-60
2021/08/14 00:38:45;;;;;;;;;;;;;;;15.43;81.55;100418.41;5052538;28;1953;-61
2021/08/14 00:41:11;;;;;;;;;;;;;;;15.49;81.51;100417.53;5051416;28;870;-62
2021/08/14 00:43:38;;;;;;;;;;;;;;;15.51;81.33;100423.47;5052580;28;881;-62
2021/08/14 00:46:05;;;;;;;;;;;;;;;15.58;81.19;100416.22;5052495;28;822;-62
2021/08/14 00:48:31;;;;;;;;;;;;;;;15.60;80.98;100414.56;5052663;28;846;-61
2021/08/14 00:50:58;;;;;;;;;;;;;;;15.61;80.93;100420.91;5052344;28;810;-62
2021/08/14 00:53:24;;;;;;;;;;;;;;;15.56;80.95;100413.84;5052418;28;885;-61
2021/08/14 00:55:52;;;;;;;;;;;;;;;15.52;81.14;100415.88;5052257;28;912;-61
2021/08/14 00:58:18;;;;;;;;;;;;;;;15.51;81.20;100405.94;5052305;28;858;-62
2021/08/14 01:00:48;;;;;;;;;;;;;;;15.49;81.21;100411.13;5052373;28;874;-61
2021/08/14 01:03:15;;;;;;;;;;;;;;;15.51;81.00;100406.75;5052453;28;897;-61
2021/08/14 01:05:50;;;;;;;;;;;;;;;15.53;81.17;100403.50;5052114;28;811;-61
2021/08/14 01:08:17;;;;;;;;;;;;;;;15.51;81.11;100417.88;5052288;28;846;-62
2021/08/14 01:10:43;;;;;;;;;;;;;;;15.50;81.12;100412.72;5052539;28;897;-62
2021/08/14 01:13:10;;;;;;;;;;;;;;;15.46;81.25;100410.00;5052494;28;837;-61
2021/08/14 01:15:44;;;;;;;;;;;;;;;15.39;81.60;100404.53;5052066;28;1218;-62
2021/08/14 01:18:12;;;;;;;;;;;;;;;15.38;81.38;100404.94;5051940;28;807;-61
2021/08/14 01:20:39;;;;;;;;;;;;;;;15.30;81.60;100402.28;5051907;28;1967;-62
2021/08/14 01:23:05;;;;;;;;;;;;;;;15.21;81.79;100398.44;5050513;28;1184;-62
2021/08/14 01:25:32;;;;;;;;;;;;;;;15.14;81.77;100401.31;5051704;28;1029;-61
2021/08/14 01:27:58;;;;;;;;;;;;;;;15.07;81.73;100396.66;5051891;28;897;-62
2021/08/14 01:30:25;;;;;;;;;;;;;;;15.02;81.87;100392.34;5050500;28;1745;-61
2021/08/14 01:32:53;;;;;;;;;;;;;;;14.99;82.16;100395.94;5051759;28;862;-62
2021/08/14 01:35:19;;;;;;;;;;;;;;;14.98;81.91;100393.56;5051741;28;818;-61
2021/08/14 01:37:47;;;;;;;;;;;;;;;14.92;82.37;100384.13;5051643;28;881;-61
2021/08/14 01:40:13;;;;;;;;;;;;;;;14.89;82.56;100386.56;5050197;28;1886;-62
2021/08/14 01:42:39;;;;;;;;;;;;;;;14.89;82.67;100383.78;5051582;28;842;-61
2021/08/14 01:45:07;;;;;;;;;;;;;;;14.88;82.72;100379.41;5051821;28;866;-61
2021/08/14 01:47:34;;;;;;;;;;;;;;;14.88;82.80;100384.19;5051532;28;865;-61
2021/08/14 01:50:00;;;;;;;;;;;;;;;14.84;82.99;100384.22;5050199;28;1282;-61
2021/08/14 01:52:27;;;;;;;;;;;;;;;14.87;83.21;100386.19;5051648;28;877;-61
2021/08/14 01:54:54;;;;;;;;;;;;;;;14.92;83.41;100381.34;5051338;28;795;-60
2021/08/14 01:57:20;;;;;;;;;;;;;;;14.89;83.26;100386.56;5051723;28;802;-61
2021/08/14 01:59:46;;;;;;;;;;;;;;;14.89;83.37;100380.19;5051342;28;1988;-61
2021/08/14 02:02:13;;;;;;;;;;;;;;;14.88;83.24;100381.41;5051404;28;854;-60
2021/08/14 02:04:39;;;;;;;;;;;;;;;14.88;83.51;100379.41;5051381;28;901;-61
2021/08/14 02:07:06;;;;;;;;;;;;;;;14.90;83.47;100384.56;5051366;28;839;-61
2021/08/14 02:09:33;;;;;;;;;;;;;;;14.90;83.38;100381.78;5051433;28;854;-60
2021/08/14 02:12:00;;;;;;;;;;;;;;;14.86;83.51;100381.81;5051522;28;823;-60
2021/08/14 02:14:25;;;;;;;;;;;;;;;14.81;83.50;100379.50;5051463;28;901;-61
2021/08/14 02:16:52;;;;;;;;;;;;;;;14.76;83.77;100382.72;5051228;28;1399;-60
2021/08/14 02:19:19;;;;;;;;;;;;;;;14.76;83.81;100381.94;5052942;28;1914;-60
2021/08/14 02:21:45;;;;;;;;;;;;;;;14.70;83.80;100385.22;5055230;28;881;-61
2021/08/14 02:24:12;;;;;;;;;;;;;;;14.73;83.93;100383.56;5055107;28;790;-61
2021/08/14 02:26:39;;;;;;;;;;;;;;;14.80;83.69;100383.47;5055115;28;1207;-61
2021/08/14 02:29:05;;;;;;;;;;;;;;;14.82;83.73;100391.41;5055110;28;901;-61
2021/08/14 02:31:32;;;;;;;;;;;;;;;14.86;83.51;100392.16;5053766;28;1390;-61
2021/08/14 02:33:59;;;;;;;;;;;;;;;14.87;83.41;100383.41;5055032;28;838;-61
2021/08/14 02:36:25;;;;;;;;;;;;;;;14.90;83.25;100382.56;5054963;28;858;-61
2021/08/14 02:38:52;;;;;;;;;;;;;;;14.88;83.07;100376.63;5054837;28;1945;-61
2021/08/14 02:41:19;;;;;;;;;;;;;;;14.86;83.26;100372.69;5054868;28;854;-61
2021/08/14 02:43:45;;;;;;;;;;;;;;;14.80;83.10;100372.34;5054896;28;818;-61
2021/08/14 02:46:11;;;;;;;;;;;;;;;14.68;83.24;100365.34;5054745;28;913;-61
2021/08/14 02:48:37;;;;;;;;;;;;;;;14.60;83.31;100363.09;5054738;28;826;-61
2021/08/14 02:51:04;;;;;;;;;;;;;;;14.53;83.82;100360.34;5054699;28;802;-61
2021/08/14 02:53:30;;;;;;;;;;;;;;;14.55;83.78;100357.94;5054830;28;854;-60
2021/08/14 02:55:57;;;;;;;;;;;;;;;14.50;83.69;100357.19;5054609;28;802;-60
2021/08/14 02:58:23;;;;;;;;;;;;;;;14.38;83.69;100357.75;5054518;28;853;-60
2021/08/14 03:00:50;;;;;;;;;;;;;;;14.32;84.08;100355.81;5054709;28;834;-60
2021/08/14 03:03:17;;;;;;;;;;;;;;;14.22;84.16;100352.75;5054470;28;864;-60
2021/08/14 03:05:44;;;;;;;;;;;;;;;14.20;84.60;100357.94;5054436;28;850;-60
2021/08/14 03:08:11;;;;;;;;;;;;;;;14.20;84.81;100354.38;5053103;28;847;-60
2021/08/14 03:10:40;;;;;;;;;;;;;;;14.18;84.62;100356.78;5054293;28;924;-61
2021/08/14 03:13:07;;;;;;;;;;;;;;;14.14;84.96;100358.81;5054424;28;913;-60
2021/08/14 03:15:34;;;;;;;;;;;;;;;14.11;85.00;100356.88;5054098;28;1345;-61
2021/08/14 03:18:00;;;;;;;;;;;;;;;14.07;85.66;100354.88;5054516;28;866;-60
2021/08/14 03:20:27;;;;;;;;;;;;;;;14.02;85.24;100355.34;5054124;28;1979;-61
2021/08/14 03:22:54;;;;;;;;;;;;;;;13.99;85.50;100358.94;5053983;28;840;-60
2021/08/14 03:25:20;;;;;;;;;;;;;;;13.98;85.61;100359.38;5054062;28;830;-61
2021/08/14 03:27:46;;;;;;;;;;;;;;;13.95;85.75;100358.19;5054194;28;802;-60
2021/08/14 03:30:14;;;;;;;;;;;;;;;13.98;85.95;100359.38;5053322;28;882;-60
2021/08/14 03:32:41;;;;;;;;;;;;;;;14.05;86.21;100356.50;5053234;28;980;-60
2021/08/14 03:35:07;;;;;;;;;;;;;;;14.21;86.45;100355.94;5053900;28;834;-61
2021/08/14 03:37:34;;;;;;;;;;;;;;;14.35;86.12;100355.00;5053864;28;854;-60
2021/08/14 03:40:02;;;;;;;;;;;;;;;14.47;85.83;100360.81;5053705;28;1885;-61
2021/08/14 03:42:28;;;;;;;;;;;;;;;14.57;85.53;100358.34;5054035;28;814;-61
2021/08/14 03:44:55;;;;;;;;;;;;;;;14.65;85.30;100365.38;5053679;28;885;-61
2021/08/14 03:47:21;;;;;;;;;;;;;;;14.76;85.17;100363.25;5053633;28;853;-61
2021/08/14 03:49:48;;;;;;;;;;;;;;;14.82;84.86;100356.00;5053634;28;893;-60
2021/08/14 03:52:14;;;;;;;;;;;;;;;14.85;84.67;100365.53;5053476;28;830;-61
2021/08/14 03:54:43;;;;;;;;;;;;;;;14.89;84.68;100369.84;5053520;28;818;-60
2021/08/14 03:57:09;;;;;;;;;;;;;;;14.94;84.50;100368.59;5053496;28;913;-60
2021/08/14 03:59:36;;;;;;;;;;;;;;;15.00;84.31;100366.13;5053327;28;1953;-60
2021/08/14 04:02:03;;;;;;;;;;;;;;;15.05;84.00;100362.88;5053336;28;901;-61
2021/08/14 04:04:30;;;;;;;;;;;;;;;15.16;84.09;100363.50;5053326;28;865;-61
2021/08/14 04:06:56;;;;;;;;;;;;;;;15.31;83.70;100367.63;5053321;28;838;-61
2021/08/14 04:09:22;;;;;;;;;;;;;;;15.47;83.04;100367.00;5053496;28;837;-61
2021/08/14 04:11:49;;;;;;;;;;;;;;;15.60;82.76;100366.41;5053460;28;826;-60
2021/08/14 04:14:15;;;;;;;;;;;;;;;15.71;82.17;100372.59;5053160;28;958;-61
2021/08/14 04:16:42;;;;;;;;;;;;;;;15.81;82.05;100373.63;5052872;28;1269;-61
2021/08/14 04:19:10;;;;;;;;;;;;;;;15.90;81.48;100373.91;5052895;28;1976;-61
2021/08/14 04:21:36;;;;;;;;;;;;;;;16.02;81.41;100378.06;5052923;28;834;-61
2021/08/14 04:24:03;;;;;;;;;;;;;;;16.13;80.89;100376.66;5052965;28;889;-61
2021/08/14 04:26:30;;;;;;;;;;;;;;;16.28;80.66;100376.38;5052850;28;899;-61
2021/08/14 04:28:58;;;;;;;;;;;;;;;16.45;80.32;100372.47;5052966;28;818;-61
2021/08/14 04:31:24;;;;;;;;;;;;;;;16.63;79.81;100376.91;5052870;28;925;-61
2021/08/14 04:33:51;;;;;;;;;;;;;;;16.80;79.23;100378.53;5052768;28;885;-61
2021/08/14 04:36:17;;;;;;;;;;;;;;;16.98;78.34;100380.94;5052786;28;817;-61
2021/08/14 04:38:44;;;;;;;;;;;;;;;17.12;77.31;100382.66;5052627;28;1894;-61
2021/08/14 04:41:10;;;;;;;;;;;;;;;17.25;77.21;100383.53;5052666;28;845;-61
2021/08/14 04:43:36;;;;;;;;;;;;;;;17.38;76.71;100383.63;5052181;28;897;-61
2021/08/14 04:46:02;;;;;;;;;;;;;;;17.51;75.98;100389.31;5052534;28;869;-61
2021/08/14 04:48:29;;;;;;;;;;;;;;;17.61;75.53;100393.09;5052525;28;810;-61
2021/08/14 04:50:56;;;;;;;;;;;;;;;17.71;75.07;100395.63;5052365;28;822;-61
2021/08/14 04:53:23;;;;;;;;;;;;;;;17.81;74.58;100388.16;5052477;28;814;-61
2021/08/14 04:55:50;;;;;;;;;;;;;;;17.95;74.14;100384.25;5052320;28;893;-61
2021/08/14 04:58:16;;;;;;;;;;;;;;;18.12;73.98;100385.81;5052342;28;834;-61
2021/08/14 05:00:43;;;;;;;;;;;;;;;18.30;73.33;100390.13;5052487;28;1886;-61
2021/08/14 05:03:09;;;;;;;;;;;;;;;18.49;73.03;100386.38;5052288;28;1141;-61
2021/08/14 05:05:36;;;;;;;;;;;;;;;18.69;72.09;100389.03;5052358;28;826;-61
2021/08/14 05:08:02;;;;;;;;;;;;;;;18.90;71.88;100382.03;5052311;28;866;-61
2021/08/14 05:15:39;;;;;;;;;;;;;;;19.76;68.43;100379.34;5504642;22;1518;-61
2021/08/14 05:18:06;;;;;;;;;;;;;;;20.35;67.21;100373.31;5051996;28;821;-61
2021/08/14 05:20:33;;;;;;;;;;;;;;;21.19;64.51;100372.59;5051792;28;1913;-61
2021/08/14 05:23:01;;;;;;;;;;;;;;;21.97;62.63;100367.78;5051758;28;1263;-61
2021/08/14 05:25:28;;;;;;;;;;;;;;;22.63;61.48;100378.56;5051852;28;857;-61
2021/08/14 05:27:55;;;;;;;;;;;;;;;23.36;59.59;100371.94;5051807;28;829;-61
2021/08/14 05:30:21;;;;;;;;;;;;;;;24.07;56.52;100380.13;5051871;28;904;-61
2021/08/14 05:32:47;;;;;;;;;;;;;;;24.67;51.08;100373.34;5051755;28;818;-61
2021/08/14 05:35:14;;;;;;;;;;;;;;;24.88;50.06;100373.44;5051742;28;867;-61
2021/08/14 05:37:41;;;;;;;;;;;;;;;25.12;49.43;100367.69;5051743;28;822;-62
2021/08/14 05:40:08;;;;;;;;;;;;;;;25.62;47.57;100367.66;5051576;28;1910;-61
2021/08/14 05:42:35;;;;;;;;;;;;;;;26.12;45.70;100372.41;5051570;28;837;-62
2021/08/14 05:45:01;;;;;;;;;;;;;;;26.63;43.93;100374.56;5051644;28;837;-62
2021/08/14 05:47:28;;;;;;;;;;;;;;;26.99;42.04;100377.16;5051921;28;829;-62
2021/08/14 05:49:54;;;;;;;;;;;;;;;27.17;42.82;100373.97;5051550;28;881;-61
2021/08/14 05:52:23;;;;;;;;;;;;;;;27.20;42.15;100375.00;5051549;28;881;-62
2021/08/14 05:54:50;;;;;;;;;;;;;;;27.18;42.41;100372.66;5050619;28;892;-62
2021/08/14 05:57:16;;;;;;;;;;;;;;;27.24;40.83;100372.75;5051689;28;885;-62
2021/08/14 05:59:43;;;;;;;;;;;;;;;27.19;40.05;100382.75;5051315;28;1965;-62
2021/08/14 06:02:09;;;;;;;;;;;;;;;27.62;40.05;100373.50;5051510;28;896;-62
2021/08/14 06:04:36;;;;;;;;;;;;;;;28.30;38.64;100383.09;5051389;28;802;-62
2021/08/14 06:07:03;;;;;;;;;;;;;;;29.02;37.59;100384.50;5051407;28;908;-62
2021/08/14 06:09:29;;;;;;;;;;;;;;;29.55;36.38;100384.69;5050061;28;830;-62
2021/08/14 06:11:55;;;;;;;;;;;;;;;29.86;35.18;100379.97;5051406;28;842;-63
2021/08/14 06:14:22;;;;;;;;;;;;;;;29.70;35.21;100376.69;5051278;28;935;-62
2021/08/14 06:16:48;;;;;;;;;;;;;;;29.88;35.30;100377.38;5051080;28;1198;-62
2021/08/14 06:19:15;;;;;;;;;;;;;;;30.13;35.41;100373.38;5051333;28;1991;-61
2021/08/14 06:21:41;;;;;;;;;;;;;;;30.56;35.30;100377.81;5051474;28;822;-62
2021/08/14 06:24:09;;;;;;;;;;;;;;;30.97;34.38;100379.09;5051431;28;868;-62
2021/08/14 06:26:36;;;;;;;;;;;;;;;31.27;34.13;100376.97;5051442;28;857;-62
2021/08/14 06:29:02;;;;;;;;;;;;;;;31.21;33.46;100375.50;5051362;28;854;-62
2021/08/14 06:31:29;;;;;;;;;;;;;;;31.04;33.51;100379.28;5051559;28;814;-62
2021/08/14 06:33:55;;;;;;;;;;;;;;;30.70;32.97;100381.59;5051949;28;778;-62
2021/08/14 06:36:22;;;;;;;;;;;;;;;30.44;34.44;100377.09;5051970;28;766;-62
2021/08/14 06:38:48;;;;;;;;;;;;;;;30.97;34.36;100377.00;5051496;28;1951;-62
2021/08/14 06:41:15;;;;;;;;;;;;;;;31.28;33.41;100389.16;5051317;28;878;-62
2021/08/14 06:43:42;;;;;;;;;;;;;;;31.48;32.55;100385.13;5050857;28;905;-62
2021/08/14 06:46:08;;;;;;;;;;;;;;;31.40;32.24;100387.00;5051060;28;786;-62
2021/08/14 06:48:35;;;;;;;;;;;;;;;31.62;33.16;100389.66;5050964;28;842;-64
2021/08/14 06:51:03;;;;;;;;;;;;;;;31.70;32.57;100396.28;5050933;28;842;-62
2021/08/14 06:53:29;;;;;;;;;;;;;;;31.79;32.47;100400.09;5050927;28;910;-62
2021/08/14 06:55:56;;;;;;;;;;;;;;;31.99;32.05;100399.63;5050873;28;827;-63
2021/08/14 06:58:22;;;;;;;;;;;;;;;31.91;32.24;100396.56;5050869;28;873;-62
2021/08/14 07:00:49;;;;;;;;;;;;;;;32.42;31.46;100393.06;5050782;28;1941;-62
2021/08/14 07:03:15;;;;;;;;;;;;;;;32.45;31.50;100385.47;5050841;28;814;-62
2021/08/14 07:05:42;;;;;;;;;;;;;;;32.43;30.74;100388.09;5051440;28;1370;-63
2021/08/14 07:08:08;;;;;;;;;;;;;;;32.13;31.53;100391.91;5054760;28;881;-62
2021/08/14 07:10:35;;;;;;;;;;;;;;;32.34;31.28;100384.31;5054402;28;869;-62
2021/08/14 07:13:02;;;;;;;;;;;;;;;32.52;30.78;100388.50;5054231;28;845;-62
2021/08/14 07:15:29;;;;;;;;;;;;;;;32.69;30.45;100385.41;5054255;28;1379;-62
2021/08/14 07:17:56;;;;;;;;;;;;;;;32.38;30.39;100386.09;5054475;28;904;-62
2021/08/14 07:20:23;;;;;;;;;;;;;;;32.46;30.50;100387.03;5054476;28;1969;-62
2021/08/14 07:22:49;;;;;;;;;;;;;;;32.28;31.07;100392.19;5054116;28;876;-62
2021/08/14 07:25:16;;;;;;;;;;;;;;;32.57;30.59;100386.88;5054244;28;822;-62
2021/08/14 07:27:43;;;;;;;;;;;;;;;33.00;29.99;100396.63;5054190;28;900;-62
2021/08/14 07:30:10;;;;;;;;;;;;;;;32.72;30.08;100392.13;5053997;28;834;-62
2021/08/14 07:32:37;;;;;;;;;;;;;;;32.37;29.97;100390.25;5053968;28;798;-63
2021/08/14 07:35:04;;;;;;;;;;;;;;;31.78;30.17;100393.59;5053913;28;829;-63
2021/08/14 07:37:31;;;;;;;;;;;;;;;31.66;31.00;100390.09;5053813;28;1184;-63
2021/08/14 07:39:58;;;;;;;;;;;;;;;31.60;29.74;100397.19;5053781;28;2018;-65
2021/08/14 07:42:25;;;;;;;;;;;;;;;31.73;30.79;100392.38;5053756;28;912;-62
2021/08/14 07:44:52;;;;;;;;;;;;;;;32.50;28.38;100382.53;5053680;28;901;-62
2021/08/14 07:47:19;;;;;;;;;;;;;;;32.52;27.51;100382.78;5053770;28;822;-62
2021/08/14 07:49:46;;;;;;;;;;;;;;;31.79;28.26;100382.94;5053580;28;889;-63
2021/08/14 07:52:13;;;;;;;;;;;;;;;31.59;27.60;100385.00;5053624;28;934;-63
2021/08/14 07:54:39;;;;;;;;;;;;;;;31.95;28.14;100385.59;5053712;28;798;-63
2021/08/14 07:57:06;;;;;;;;;;;;;;;32.49;28.01;100380.22;5053760;28;897;-62
2021/08/14 07:59:33;;;;;;;;;;;;;;;33.27;27.48;100374.56;5053373;28;1943;-62
2021/08/14 08:01:59;;;;;;;;;;;;;;;33.53;26.15;100380.31;5053481;28;802;-63
2021/08/14 08:04:26;;;;;;;;;;;;;;;33.49;25.13;100376.22;5053342;28;818;-63
2021/08/14 08:06:53;;;;;;;;;;;;;;;33.29;25.03;100386.25;5053361;28;830;-63
2021/08/14 08:09:20;;;;;;;;;;;;;;;32.89;25.36;100378.31;5053264;28;860;-64
2021/08/14 08:11:46;;;;;;;;;;;;;;;32.18;25.83;100368.19;5053379;28;865;-63
2021/08/14 08:14:13;;;;;;;;;;;;;;;32.16;25.54;100373.66;5053424;28;882;-64
2021/08/14 08:16:40;;;;;;;;;;;;;;;31.94;25.07;100377.56;5050848;28;1373;-63
2021/08/14 08:19:06;;;;;;;;;;;;;;;32.09;25.51;100372.22;5053028;28;1981;-63
2021/08/14 08:21:33;;;;;;;;;;;;;;;32.58;25.11;100381.94;5053040;28;841;-63
2021/08/14 08:24:00;;;;;;;;;;;;;;;32.42;23.71;100372.28;5053196;28;873;-63
2021/08/14 08:26:26;;;;;;;;;;;;;;;31.89;24.79;100369.84;5052972;28;809;-64
2021/08/14 08:28:53;;;;;;;;;;;;;;;31.62;26.15;100363.13;5052916;28;814;-63
2021/08/14 08:31:20;;;;;;;;;;;;;;;32.05;25.54;100360.31;5052963;28;782;-63
2021/08/14 08:33:47;;;;;;;;;;;;;;;32.45;25.27;100374.03;5052789;28;798;-64
2021/08/14 08:36:14;;;;;;;;;;;;;;;32.46;24.92;100378.44;5052678;28;850;-63
2021/08/14 08:38:40;;;;;;;;;;;;;;;32.53;24.85;100372.13;5052674;28;1894;-63
2021/08/14 08:41:08;;;;;;;;;;;;;;;32.17;25.90;100360.13;5052637;28;868;-64
2021/08/14 08:43:40;;;;;;;;;;;;;;;31.69;26.01;100365.41;5052535;28;872;-66
2021/08/14 08:46:09;;;;;;;;;;;;;;;31.38;27.47;100367.53;5051279;28;1236;-63
2021/08/14 08:48:42;;;;;;;;;;;;;;;32.25;26.93;100361.84;5052692;28;818;-63
2021/08/14 08:51:09;;;;;;;;;;;;;;;32.34;25.16;100358.56;5052724;28;799;-64
2021/08/14 08:53:38;;;;;;;;;;;;;;;32.14;25.97;100345.63;5052630;28;818;-63
2021/08/14 08:56:05;;;;;;;;;;;;;;;32.02;26.34;100349.16;5052350;28;866;-63
2021/08/14 08:58:35;;;;;;;;;;;;;;;32.28;26.59;100343.59;5052390;28;902;-63
2021/08/14 09:01:00;;;;;;;;;;;;;;;32.25;25.81;100350.41;5052192;28;1949;-64
2021/08/14 09:03:28;;;;;;;;;;;;;;;31.66;26.29;100349.31;5052296;28;822;-63
2021/08/14 09:05:56;;;;;;;;;;;;;;;31.81;27.00;100341.09;5052187;28;822;-63
2021/08/14 09:08:23;;;;;;;;;;;;;;;31.75;25.43;100354.69;5052788;28;755;-65
2021/08/14 09:10:50;;;;;;;;;;;;;;;31.26;27.70;100346.09;5052065;28;856;-64
2021/08/14 09:13:20;;;;;;;;;;;;;;;31.29;26.73;100347.91;5052149;28;857;-65
2021/08/14 09:15:46;;;;;;;;;;;;;;;30.95;26.45;100341.75;5052021;28;1353;-63
2021/08/14 09:18:15;;;;;;;;;;;;;;;31.17;26.89;100338.66;5052018;28;802;-65
2021/08/14 09:20:53;;;;;;;;;;;;;;;31.06;27.36;100338.78;5051918;28;1913;-63
2021/08/14 09:23:21;;;;;;;;;;;;;;;30.96;26.36;100331.88;5052231;28;900;-65
2021/08/14 09:25:55;;;;;;;;;;;;;;;30.29;28.05;100334.69;5052103;28;884;-65
2021/08/14 09:28:37;;;;;;;;;;;;;;;30.57;28.79;100338.66;5051874;28;814;-63
2021/08/14 09:31:05;;;;;;;;;;;;;;;31.16;28.38;100310.69;5051871;28;816;-62
2021/08/14 09:33:34;;;;;;;;;;;;;;;31.83;27.34;100329.13;5051906;28;846;-62
2021/08/14 09:36:03;;;;;;;;;;;;;;;31.54;25.81;100335.19;5051770;28;806;-63
2021/08/14 09:38:49;;;;;;;;;;;;;;;31.01;27.87;100323.25;5051957;28;841;-62
2021/08/14 09:41:16;;;;;;;;;;;;;;;31.08;27.09;100325.53;5051563;28;868;-62
2021/08/14 09:43:43;;;;;;;;;;;;;;;30.98;28.00;100321.47;5051597;28;826;-63
2021/08/14 09:46:10;;;;;;;;;;;;;;;30.80;27.78;100331.47;5051794;28;854;-63
2021/08/14 09:48:37;;;;;;;;;;;;;;;30.48;28.64;100326.28;5051571;28;829;-64
2021/08/14 09:51:04;;;;;;;;;;;;;;;30.67;29.82;100325.63;5051608;28;854;-63
2021/08/14 09:53:31;;;;;;;;;;;;;;;30.73;27.89;100321.41;5051827;28;856;-64
2021/08/14 09:56:06;;;;;;;;;;;;;;;30.64;29.49;100330.31;5051447;28;853;-63
2021/08/14 09:58:32;;;;;;;;;;;;;;;30.67;29.27;100317.81;5051498;28;853;-63
2021/08/14 10:01:00;;;;;;;;;;;;;;;30.51;29.34;100307.31;5051297;28;1882;-63
2021/08/14 10:03:27;;;;;;;;;;;;;;;30.84;29.80;100305.50;5051455;28;873;-64
2021/08/14 10:05:55;;;;;;;;;;;;;;;31.17;29.07;100315.06;5051391;28;865;-64
2021/08/14 10:08:21;;;;;;;;;;;;;;;31.01;28.94;100320.41;5051403;28;827;-64
2021/08/14 10:10:48;;;;;;;;;;;;;;;31.18;29.63;100311.69;5051183;28;876;-63
2021/08/14 10:13:18;;;;;;;;;;;;;;;31.26;28.92;100314.69;5051485;28;823;-64
2021/08/14 10:15:45;;;;;;;;;;;;;;;30.31;30.12;100317.06;5051168;28;1138;-63
2021/08/14 10:18:11;;;;;;;;;;;;;;;30.29;30.84;100306.19;5051529;28;842;-63
2021/08/14 10:20:38;;;;;;;;;;;;;;;29.96;30.41;100312.84;5051503;28;1967;-63
2021/08/14 10:23:07;;;;;;;;;;;;;;;30.02;30.79;100296.50;5051198;28;926;-63
2021/08/14 10:25:35;;;;;;;;;;;;;;;30.67;29.15;100297.84;5051210;28;857;-65
2021/08/14 10:28:03;;;;;;;;;;;;;;;30.69;28.85;100303.03;5051140;28;917;-63
2021/08/14 10:30:37;;;;;;;;;;;;;;;31.17;28.89;100301.56;5051817;28;750;-64
2021/08/14 10:33:05;;;;;;;;;;;;;;;30.76;28.44;100295.97;5051132;28;854;-63
2021/08/14 10:35:34;;;;;;;;;;;;;;;30.69;28.74;100300.19;5051129;28;822;-64
2021/08/14 10:38:01;;;;;;;;;;;;;;;30.97;28.46;100282.81;5051069;28;833;-66
2021/08/14 10:40:48;;;;;;;;;;;;;;;31.08;28.47;100285.56;5052052;28;1885;-64
2021/08/14 10:43:15;;;;;;;;;;;;;;;31.55;27.79;100275.97;5040698;28;1237;-64
2021/08/14 10:45:41;;;;;;;;;;;;;;;32.02;28.21;100283.44;5054780;28;822;-64
2021/08/14 10:48:07;;;;;;;;;;;;;;;32.29;27.38;100273.66;5054908;28;868;-63
2021/08/14 10:50:34;;;;;;;;;;;;;;;32.38;26.82;100265.97;5054734;28;838;-63
2021/08/14 10:53:15;;;;;;;;;;;;;;;32.53;26.44;100280.56;5054853;28;813;-65
2021/08/14 10:55:42;;;;;;;;;;;;;;;32.34;25.75;100264.19;5054639;28;856;-64
2021/08/14 10:58:20;;;;;;;;;;;;;;;32.07;26.41;100259.69;5054806;28;892;-64
2021/08/14 11:00:46;;;;;;;;;;;;;;;31.83;26.99;100267.00;5054537;28;1882;-64
2021/08/14 11:03:13;;;;;;;;;;;;;;;32.11;26.67;100265.88;5054527;28;810;-63
2021/08/14 11:05:43;;;;;;;;;;;;;;;32.52;26.17;100259.75;5054523;28;877;-63
2021/08/14 11:08:28;;;;;;;;;;;;;;;32.51;26.76;100269.63;5054364;28;821;-64
2021/08/14 11:10:55;;;;;;;;;;;;;;;32.57;25.23;100260.25;5054437;28;818;-64
2021/08/14 11:13:38;;;;;;;;;;;;;;;31.91;25.40;100259.38;5054317;28;948;-63
2021/08/14 11:16:05;;;;;;;;;;;;;;;31.12;25.08;100262.44;5054282;28;1193;-63
2021/08/14 11:18:50;;;;;;;;;;;;;;;31.08;25.58;100257.00;5054220;28;921;-63
2021/08/14 11:21:16;;;;;;;;;;;;;;;31.54;25.30;100257.31;5054697;28;825;-63
2021/08/14 11:23:56;;;;;;;;;;;;;;;31.98;24.96;100257.22;5054576;28;825;-66
2021/08/14 11:26:44;;;;;;;;;;;;;;;31.98;25.55;100258.00;5054131;28;814;-63
2021/08/14 11:29:10;;;;;;;;;;;;;;;32.42;25.45;100243.56;5053986;28;1346;-63
2021/08/14 11:31:37;;;;;;;;;;;;;;;32.85;25.18;100254.00;5053965;28;857;-64
2021/08/14 11:34:12;;;;;;;;;;;;;;;32.53;24.36;100244.16;5053995;28;874;-66
2021/08/14 11:36:39;;;;;;;;;;;;;;;32.38;25.16;100243.88;5053922;28;813;-63
2021/08/14 11:39:06;;;;;;;;;;;;;;;32.44;24.78;100235.19;5053965;28;1956;-63
2021/08/14 11:41:33;;;;;;;;;;;;;;;32.92;24.85;100242.69;5053804;28;814;-63
2021/08/14 11:44:01;;;;;;;;;;;;;;;33.52;24.22;100232.66;5053769;28;810;-63
2021/08/14 11:46:28;;;;;;;;;;;;;;;33.87;23.75;100226.97;5054576;28;798;-63
2021/08/14 11:48:54;;;;;;;;;;;;;;;33.92;23.68;100223.94;5054034;28;806;-63
2021/08/14 11:51:24;;;;;;;;;;;;;;;34.20;23.64;100233.22;5052915;28;814;-63
2021/08/14 11:54:02;;;;;;;;;;;;;;;33.73;22.91;100231.94;5053358;28;846;-62
2021/08/14 11:56:29;;;;;;;;;;;;;;;32.69;23.88;100230.88;5053569;28;811;-63
2021/08/14 11:58:56;;;;;;;;;;;;;;;32.86;23.82;100230.56;5053417;28;1952;-63
2021/08/14 12:01:24;;;;;;;;;;;;;;;32.42;23.60;100232.88;5053449;28;799;-64
2021/08/14 12:04:00;;;;;;;;;;;;;;;32.12;24.15;100227.41;5053370;28;869;-63
2021/08/14 12:06:31;;;;;;;;;;;;;;;32.89;23.91;100225.84;5053621;28;818;-63
2021/08/14 12:08:58;;;;;;;;;;;;;;;33.61;23.63;100211.38;5053289;28;826;-63
2021/08/14 12:11:29;;;;;;;;;;;;;;;34.11;22.30;100214.38;5053252;28;818;-63
2021/08/14 12:14:15;;;;;;;;;;;;;;;33.91;21.74;100207.31;5053189;28;1086;-65
2021/08/14 12:16:42;;;;;;;;;;;;;;;33.36;22.42;100208.00;5051576;28;1261;-63
2021/08/14 12:31:21;;;;;;;;;;;;;;;34.15;21.62;100204.13;5053225;28;620;-64
2021/08/14 12:33:49;;;;;;;;;;;;;;;33.95;21.88;100194.16;5052791;28;818;-63
2021/08/14 12:36:30;;;;;;;;;;;;;;;34.04;21.67;100200.75;5052835;28;869;-64
2021/08/14 12:38:56;;;;;;;;;;;;;;;33.89;21.72;100196.41;5052542;28;1953;-63
2021/08/14 12:41:23;;;;;;;;;;;;;;;34.25;21.44;100187.22;5052641;28;798;-63
2021/08/14 12:43:51;;;;;;;;;;;;;;;34.72;20.87;100188.38;5052715;28;814;-63
2021/08/14 12:46:24;;;;;;;;;;;;;;;34.69;20.57;100172.25;5051364;28;846;-65
2021/08/14 12:49:09;;;;;;;;;;;;;;;34.23;20.55;100178.41;5052550;28;806;-64
2021/08/14 12:51:35;;;;;;;;;;;;;;;33.98;20.95;100177.94;5052637;28;802;-63
2021/08/14 12:54:11;;;;;;;;;;;;;;;34.01;20.77;100173.19;5052669;28;939;-65
2021/08/14 12:56:41;;;;;;;;;;;;;;;33.75;20.66;100175.59;5052442;28;881;-63
2021/08/14 12:59:07;;;;;;;;;;;;;;;34.27;20.83;100172.28;5052486;28;1882;-63
2021/08/14 13:01:34;;;;;;;;;;;;;;;34.66;20.56;100173.41;5052300;28;850;-64
2021/08/14 13:04:03;;;;;;;;;;;;;;;34.66;20.75;100174.16;5051957;28;873;-65
2021/08/14 13:06:30;;;;;;;;;;;;;;;34.86;20.75;100169.69;5052180;28;873;-63
2021/08/14 13:08:56;;;;;;;;;;;;;;;34.65;20.58;100152.50;5052119;28;779;-63
2021/08/14 13:11:23;;;;;;;;;;;;;;;34.51;20.37;100146.09;5052146;28;834;-64
2021/08/14 13:13:49;;;;;;;;;;;;;;;34.73;20.80;100156.22;5052042;28;1108;-64
2021/08/14 13:16:17;;;;;;;;;;;;;;;35.04;20.84;100153.50;5051909;28;1265;-63